sensor_id;sensor_type;location;lat;lon;timestamp;temperature;humidity
40816;DHT22;26535;48.788;9.214;2023-07-24T06:53:09;21.60;89.30
40816;DHT22;26535;48.788;9.214;2023-07-24T06:55:35;21.70;89.10
40816;DHT22;26535;48.788;9.214;2023-07-24T06:58:01;21.70;89.30
40816;DHT22;26535;48.788;9.214;2023-07-24T07:00:26;21.60;89.00
40816;DHT22;26535;48.788;9.214;2023-07-24T07:02:52;21.50;89.90
40816;DHT22;26535;48.788;9.214;2023-07-24T07:05:18;21.50;90.00
40816;DHT22;26535;48.788;9.214;2023-07-24T07:07:43;21.50;90.10
40816;DHT22;26535;48.788;9.214;2023-07-24T07:10:10;21.50;90.20
40816;DHT22;26535;48.788;9.214;2023-07-24T07:12:36;21.50;90.10
40816;DHT22;26535;48.788;9.214;2023-07-24T07:15:01;21.70;89.80
40816;DHT22;26535;48.788;9.214;2023-07-24T07:17:27;21.80;89.80
40816;DHT22;26535;48.788;9.214;2023-07-24T07:20:06;21.80;89.30
40816;DHT22;26535;48.788;9.214;2023-07-24T07:22:31;21.80;89.30
40816;DHT22;26535;48.788;9.214;2023-07-24T07:24:57;21.80;89.10
40816;DHT22;26535;48.788;9.214;2023-07-24T07:27:23;21.80;89.10
40816;DHT22;26535;48.788;9.214;2023-07-24T07:29:48;21.90;89.10
40816;DHT22;26535;48.788;9.214;2023-07-24T07:32:14;21.90;89.00
40816;DHT22;26535;48.788;9.214;2023-07-24T07:34:40;21.90;89.10
40816;DHT22;26535;48.788;9.214;2023-07-24T07:37:06;21.90;89.10
40816;DHT22;26535;48.788;9.214;2023-07-24T07:39:32;21.90;89.20
40816;DHT22;26535;48.788;9.214;2023-07-24T07:41:58;21.90;89.20
40816;DHT22;26535;48.788;9.214;2023-07-24T07:44:24;22.00;88.50
40816;DHT22;26535;48.788;9.214;2023-07-24T07:46:49;22.10;87.90
40816;DHT22;26535;48.788;9.214;2023-07-24T07:49:15;22.30;87.20
40816;DHT22;26535;48.788;9.214;2023-07-24T07:51:41;22.40;86.70
40816;DHT22;26535;48.788;9.214;2023-07-24T07:54:06;22.40;86.70
40816;DHT22;26535;48.788;9.214;2023-07-24T07:56:32;22.50;86.70
40816;DHT22;26535;48.788;9.214;2023-07-24T07:58:58;22.60;86.30
40816;DHT22;26535;48.788;9.214;2023-07-24T08:01:23;22.60;86.90
40816;DHT22;26535;48.788;9.214;2023-07-24T08:03:49;22.60;87.00
40816;DHT22;26535;48.788;9.214;2023-07-24T08:06:15;22.60;87.50
40816;DHT22;26535;48.788;9.214;2023-07-24T08:08:40;22.60;87.50
40816;DHT22;26535;48.788;9.214;2023-07-24T08:11:06;22.60;87.90
40816;DHT22;26535;48.788;9.214;2023-07-24T08:13:33;22.50;88.90
40816;DHT22;26535;48.788;9.214;2023-07-24T08:15:59;22.50;89.00
40816;DHT22;26535;48.788;9.214;2023-07-24T08:18:28;22.40;90.20
40816;DHT22;26535;48.788;9.214;2023-07-24T08:20:56;22.40;91.60
40816;DHT22;26535;48.788;9.214;2023-07-24T08:23:22;22.20;91.70
40816;DHT22;26535;48.788;9.214;2023-07-24T08:25:54;22.20;91.40
40816;DHT22;26535;48.788;9.214;2023-07-24T08:28:20;22.10;92.00
40816;DHT22;26535;48.788;9.214;2023-07-24T08:30:50;22.00;92.70
40816;DHT22;26535;48.788;9.214;2023-07-24T08:33:21;21.90;94.00
40816;DHT22;26535;48.788;9.214;2023-07-24T08:35:46;21.90;93.40
40816;DHT22;26535;48.788;9.214;2023-07-24T08:38:12;21.70;94.40
40816;DHT22;26535;48.788;9.214;2023-07-24T08:40:38;21.60;94.20
40816;DHT22;26535;48.788;9.214;2023-07-24T08:43:04;21.60;95.20
40816;DHT22;26535;48.788;9.214;2023-07-24T08:45:30;21.70;94.60
40816;DHT22;26535;48.788;9.214;2023-07-24T08:47:56;21.80;95.50
40816;DHT22;26535;48.788;9.214;2023-07-24T08:50:23;21.90;96.00
40816;DHT22;26535;48.788;9.214;2023-07-24T08:52:50;21.90;96.10
40816;DHT22;26535;48.788;9.214;2023-07-24T08:55:16;21.80;97.00
40816;DHT22;26535;48.788;9.214;2023-07-24T08:57:42;21.70;96.80
40816;DHT22;26535;48.788;9.214;2023-07-24T09:00:08;21.80;96.50
40816;DHT22;26535;48.788;9.214;2023-07-24T09:02:35;22.00;96.60
40816;DHT22;26535;48.788;9.214;2023-07-24T09:05:01;22.10;95.90
40816;DHT22;26535;48.788;9.214;2023-07-24T09:07:27;22.30;95.70
40816;DHT22;26535;48.788;9.214;2023-07-24T09:09:54;22.60;96.00
40816;DHT22;26535;48.788;9.214;2023-07-24T09:12:22;22.80;95.60
40816;DHT22;26535;48.788;9.214;2023-07-24T09:14:49;23.00;95.40
40816;DHT22;26535;48.788;9.214;2023-07-24T09:17:14;22.90;93.80
40816;DHT22;26535;48.788;9.214;2023-07-24T09:19:40;23.10;93.30
40816;DHT22;26535;48.788;9.214;2023-07-24T09:22:14;23.00;93.20
40816;DHT22;26535;48.788;9.214;2023-07-24T09:24:58;23.00;93.60
40816;DHT22;26535;48.788;9.214;2023-07-24T09:27:28;23.40;93.60
40816;DHT22;26535;48.788;9.214;2023-07-24T09:29:55;23.60;93.80
40816;DHT22;26535;48.788;9.214;2023-07-24T09:34:47;24.10;92.70
40816;DHT22;26535;48.788;9.214;2023-07-24T09:37:23;24.00;91.10
40816;DHT22;26535;48.788;9.214;2023-07-24T09:39:49;23.90;92.20
40816;DHT22;26535;48.788;9.214;2023-07-24T09:42:15;23.90;91.90
40816;DHT22;26535;48.788;9.214;2023-07-24T09:44:41;23.90;92.50
40816;DHT22;26535;48.788;9.214;2023-07-24T09:47:07;23.80;91.40
40816;DHT22;26535;48.788;9.214;2023-07-24T09:49:32;23.70;91.60
40816;DHT22;26535;48.788;9.214;2023-07-24T09:51:59;23.60;91.60
40816;DHT22;26535;48.788;9.214;2023-07-24T09:54:41;23.50;92.20
40816;DHT22;26535;48.788;9.214;2023-07-24T09:57:13;23.30;92.80
40816;DHT22;26535;48.788;9.214;2023-07-24T09:59:45;23.10;93.10
40816;DHT22;26535;48.788;9.214;2023-07-24T10:02:14;22.90;93.90
40816;DHT22;26535;48.788;9.214;2023-07-24T10:04:49;22.80;94.20
40816;DHT22;26535;48.788;9.214;2023-07-24T10:07:25;22.60;94.70
40816;DHT22;26535;48.788;9.214;2023-07-24T10:09:54;22.50;94.80
40816;DHT22;26535;48.788;9.214;2023-07-24T10:12:24;22.40;95.20
40816;DHT22;26535;48.788;9.214;2023-07-24T10:14:58;22.20;95.20
40816;DHT22;26535;48.788;9.214;2023-07-24T10:17:40;22.30;95.50
40816;DHT22;26535;48.788;9.214;2023-07-24T10:21:17;22.40;95.50
40816;DHT22;26535;48.788;9.214;2023-07-24T10:23:22;22.30;95.90
40816;DHT22;26535;48.788;9.214;2023-07-24T10:25:53;22.30;95.90
40816;DHT22;26535;48.788;9.214;2023-07-24T10:28:36;22.30;95.90
40816;DHT22;26535;48.788;9.214;2023-07-24T10:31:24;22.10;96.70
40816;DHT22;26535;48.788;9.214;2023-07-24T10:33:52;22.00;97.60
40816;DHT22;26535;48.788;9.214;2023-07-24T10:36:25;21.90;98.00
40816;DHT22;26535;48.788;9.214;2023-07-24T10:38:56;21.90;97.80
40816;DHT22;26535;48.788;9.214;2023-07-24T10:41:22;21.90;98.90
40816;DHT22;26535;48.788;9.214;2023-07-24T10:43:52;21.80;99.60
40816;DHT22;26535;48.788;9.214;2023-07-24T10:46:34;21.70;99.70
40816;DHT22;26535;48.788;9.214;2023-07-24T10:49:03;21.70;99.90
40816;DHT22;26535;48.788;9.214;2023-07-24T10:51:32;21.60;99.90
40816;DHT22;26535;48.788;9.214;2023-07-24T10:54:02;21.50;99.90
40816;DHT22;26535;48.788;9.214;2023-07-24T10:56:28;21.30;99.90
40816;DHT22;26535;48.788;9.214;2023-07-24T10:58:54;21.20;99.90
40816;DHT22;26535;48.788;9.214;2023-07-24T11:01:20;21.20;99.90
40816;DHT22;26535;48.788;9.214;2023-07-24T11:03:46;21.10;99.90
40816;DHT22;26535;48.788;9.214;2023-07-24T11:06:19;20.90;99.90
40816;DHT22;26535;48.788;9.214;2023-07-24T11:08:53;20.90;99.90
40816;DHT22;26535;48.788;9.214;2023-07-24T11:11:22;20.80;99.90
40816;DHT22;26535;48.788;9.214;2023-07-24T11:13:49;20.70;99.90
40816;DHT22;26535;48.788;9.214;2023-07-24T11:16:17;20.50;99.90
40816;DHT22;26535;48.788;9.214;2023-07-24T11:18:49;20.30;99.90
40816;DHT22;26535;48.788;9.214;2023-07-24T11:21:26;20.30;99.90
40816;DHT22;26535;48.788;9.214;2023-07-24T11:23:54;20.30;99.90
40816;DHT22;26535;48.788;9.214;2023-07-24T11:26:21;20.30;99.90
40816;DHT22;26535;48.788;9.214;2023-07-24T11:28:48;20.30;99.90
40816;DHT22;26535;48.788;9.214;2023-07-24T11:31:16;20.30;99.90
40816;DHT22;26535;48.788;9.214;2023-07-24T11:33:46;20.30;99.90
40816;DHT22;26535;48.788;9.214;2023-07-24T11:36:12;20.40;99.90
40816;DHT22;26535;48.788;9.214;2023-07-24T11:38:38;20.60;99.90
40816;DHT22;26535;48.788;9.214;2023-07-24T11:41:04;20.70;99.90
40816;DHT22;26535;48.788;9.214;2023-07-24T11:43:33;21.10;99.90
40816;DHT22;26535;48.788;9.214;2023-07-24T11:45:59;21.80;99.90
40816;DHT22;26535;48.788;9.214;2023-07-24T11:48:24;22.90;99.90
40816;DHT22;26535;48.788;9.214;2023-07-24T11:50:53;23.90;99.70
40816;DHT22;26535;48.788;9.214;2023-07-24T11:53:28;24.60;97.70
40816;DHT22;26535;48.788;9.214;2023-07-24T11:55:56;24.30;96.90
40816;DHT22;26535;48.788;9.214;2023-07-24T11:58:25;23.60;97.60
40816;DHT22;26535;48.788;9.214;2023-07-24T12:00:52;23.00;99.40
40816;DHT22;26535;48.788;9.214;2023-07-24T12:03:22;22.80;99.80
40816;DHT22;26535;48.788;9.214;2023-07-24T12:05:48;22.60;99.50
40816;DHT22;26535;48.788;9.214;2023-07-24T12:08:14;22.30;99.30
40816;DHT22;26535;48.788;9.214;2023-07-24T12:10:43;22.20;99.60
40816;DHT22;26535;48.788;9.214;2023-07-24T12:13:09;22.20;99.60
40816;DHT22;26535;48.788;9.214;2023-07-24T12:15:34;22.20;99.70
40816;DHT22;26535;48.788;9.214;2023-07-24T12:18:02;22.10;99.80
40816;DHT22;26535;48.788;9.214;2023-07-24T12:20:28;22.20;99.60
40816;DHT22;26535;48.788;9.214;2023-07-24T12:22:54;22.10;99.60
40816;DHT22;26535;48.788;9.214;2023-07-24T12:25:20;22.30;99.30
40816;DHT22;26535;48.788;9.214;2023-07-24T12:27:47;22.60;99.40
40816;DHT22;26535;48.788;9.214;2023-07-24T12:30:13;22.80;99.30
40816;DHT22;26535;48.788;9.214;2023-07-24T12:32:39;22.90;98.10
40816;DHT22;26535;48.788;9.214;2023-07-24T12:35:05;22.90;98.30
40816;DHT22;26535;48.788;9.214;2023-07-24T12:37:31;23.20;98.10
40816;DHT22;26535;48.788;9.214;2023-07-24T12:39:57;23.30;97.90
40816;DHT22;26535;48.788;9.214;2023-07-24T12:42:23;23.40;97.20
40816;DHT22;26535;48.788;9.214;2023-07-24T12:44:49;23.50;97.10
40816;DHT22;26535;48.788;9.214;2023-07-24T12:47:15;23.40;97.40
40816;DHT22;26535;48.788;9.214;2023-07-24T12:49:43;23.50;98.10
40816;DHT22;26535;48.788;9.214;2023-07-24T12:52:10;23.70;98.20
40816;DHT22;26535;48.788;9.214;2023-07-24T12:54:36;24.20;97.20
40816;DHT22;26535;48.788;9.214;2023-07-24T12:57:05;24.80;95.80
40816;DHT22;26535;48.788;9.214;2023-07-24T12:59:30;25.20;94.60
40816;DHT22;26535;48.788;9.214;2023-07-24T13:01:56;25.50;93.90
40816;DHT22;26535;48.788;9.214;2023-07-24T13:04:23;26.20;92.90
40816;DHT22;26535;48.788;9.214;2023-07-24T13:06:49;26.30;92.40
40816;DHT22;26535;48.788;9.214;2023-07-24T13:09:14;26.40;92.30
40816;DHT22;26535;48.788;9.214;2023-07-24T13:11:47;26.60;91.40
40816;DHT22;26535;48.788;9.214;2023-07-24T13:14:14;26.50;92.00
40816;DHT22;26535;48.788;9.214;2023-07-24T13:16:43;26.40;92.10
40816;DHT22;26535;48.788;9.214;2023-07-24T13:19:09;26.50;90.90
40816;DHT22;26535;48.788;9.214;2023-07-24T13:21:35;26.90;90.50
40816;DHT22;26535;48.788;9.214;2023-07-24T13:24:00;27.30;90.70
40816;DHT22;26535;48.788;9.214;2023-07-24T13:26:26;27.20;88.70
40816;DHT22;26535;48.788;9.214;2023-07-24T13:28:52;27.10;87.80
40816;DHT22;26535;48.788;9.214;2023-07-24T13:31:19;27.50;87.70
40816;DHT22;26535;48.788;9.214;2023-07-24T13:33:46;27.80;87.90
40816;DHT22;26535;48.788;9.214;2023-07-24T13:36:12;27.60;86.70
40816;DHT22;26535;48.788;9.214;2023-07-24T13:38:39;27.40;87.10
40816;DHT22;26535;48.788;9.214;2023-07-24T13:41:05;27.20;84.00
40816;DHT22;26535;48.788;9.214;2023-07-24T13:43:34;26.50;85.70
40816;DHT22;26535;48.788;9.214;2023-07-24T13:46:09;26.70;85.00
40816;DHT22;26535;48.788;9.214;2023-07-24T13:48:38;26.60;87.00
40816;DHT22;26535;48.788;9.214;2023-07-24T13:51:03;26.90;85.40
40816;DHT22;26535;48.788;9.214;2023-07-24T13:53:29;26.40;85.50
40816;DHT22;26535;48.788;9.214;2023-07-24T13:55:55;26.40;84.60
40816;DHT22;26535;48.788;9.214;2023-07-24T13:58:20;26.40;84.90
40816;DHT22;26535;48.788;9.214;2023-07-24T14:00:46;26.60;82.00
40816;DHT22;26535;48.788;9.214;2023-07-24T14:03:12;27.50;80.10
40816;DHT22;26535;48.788;9.214;2023-07-24T14:05:37;29.40;77.00
40816;DHT22;26535;48.788;9.214;2023-07-24T14:08:04;31.20;74.00
40816;DHT22;26535;48.788;9.214;2023-07-24T14:10:33;31.70;71.40
40816;DHT22;26535;48.788;9.214;2023-07-24T14:12:59;33.60;67.90
40816;DHT22;26535;48.788;9.214;2023-07-24T14:15:25;34.30;64.40
40816;DHT22;26535;48.788;9.214;2023-07-24T14:17:53;33.10;66.60
40816;DHT22;26535;48.788;9.214;2023-07-24T14:20:22;33.40;64.90
40816;DHT22;26535;48.788;9.214;2023-07-24T14:22:47;33.00;64.70
40816;DHT22;26535;48.788;9.214;2023-07-24T14:25:13;31.80;66.50
40816;DHT22;26535;48.788;9.214;2023-07-24T14:27:39;31.10;69.30
40816;DHT22;26535;48.788;9.214;2023-07-24T14:30:09;31.00;68.60
40816;DHT22;26535;48.788;9.214;2023-07-24T14:32:36;30.40;69.00
40816;DHT22;26535;48.788;9.214;2023-07-24T14:35:08;29.30;70.30
40816;DHT22;26535;48.788;9.214;2023-07-24T14:37:42;28.80;71.20
40816;DHT22;26535;48.788;9.214;2023-07-24T14:40:11;28.20;73.40
40816;DHT22;26535;48.788;9.214;2023-07-24T14:42:40;27.70;74.90
40816;DHT22;26535;48.788;9.214;2023-07-24T14:45:07;28.00;76.20
40816;DHT22;26535;48.788;9.214;2023-07-24T14:47:32;28.60;74.10
40816;DHT22;26535;48.788;9.214;2023-07-24T14:49:58;28.30;75.80
40816;DHT22;26535;48.788;9.214;2023-07-24T14:52:30;28.70;76.60
40816;DHT22;26535;48.788;9.214;2023-07-24T14:54:59;29.70;73.60
40816;DHT22;26535;48.788;9.214;2023-07-24T14:57:27;30.00;73.20
40816;DHT22;26535;48.788;9.214;2023-07-24T14:59:53;29.60;73.50
40816;DHT22;26535;48.788;9.214;2023-07-24T15:02:18;29.20;73.50
40816;DHT22;26535;48.788;9.214;2023-07-24T15:04:44;28.30;72.60
40816;DHT22;26535;48.788;9.214;2023-07-24T15:07:10;27.50;73.50
40816;DHT22;26535;48.788;9.214;2023-07-24T15:09:37;27.70;73.60
40816;DHT22;26535;48.788;9.214;2023-07-24T15:12:03;27.80;74.30
40816;DHT22;26535;48.788;9.214;2023-07-24T15:14:29;28.60;73.00
40816;DHT22;26535;48.788;9.214;2023-07-24T15:16:58;30.30;69.30
40816;DHT22;26535;48.788;9.214;2023-07-24T15:19:23;31.50;66.70
40816;DHT22;26535;48.788;9.214;2023-07-24T15:21:49;31.70;66.50
40816;DHT22;26535;48.788;9.214;2023-07-24T15:24:16;30.70;67.80
40816;DHT22;26535;48.788;9.214;2023-07-24T15:26:46;29.50;70.40
40816;DHT22;26535;48.788;9.214;2023-07-24T15:29:15;28.70;72.90
40816;DHT22;26535;48.788;9.214;2023-07-24T15:31:40;28.00;74.40
40816;DHT22;26535;48.788;9.214;2023-07-24T15:34:09;27.40;76.60
40816;DHT22;26535;48.788;9.214;2023-07-24T15:36:35;26.70;78.70
40816;DHT22;26535;48.788;9.214;2023-07-24T15:39:03;26.20;79.20
40816;DHT22;26535;48.788;9.214;2023-07-24T15:41:32;25.70;80.70
40816;DHT22;26535;48.788;9.214;2023-07-24T15:43:58;25.60;81.20
40816;DHT22;26535;48.788;9.214;2023-07-24T15:46:24;25.60;81.80
40816;DHT22;26535;48.788;9.214;2023-07-24T15:48:52;25.10;83.00
40816;DHT22;26535;48.788;9.214;2023-07-24T15:51:18;24.80;84.20
40816;DHT22;26535;48.788;9.214;2023-07-24T15:53:44;24.70;85.10
40816;DHT22;26535;48.788;9.214;2023-07-24T15:56:11;24.80;85.30
40816;DHT22;26535;48.788;9.214;2023-07-24T15:58:37;25.00;84.50
40816;DHT22;26535;48.788;9.214;2023-07-24T16:01:03;24.90;84.90
40816;DHT22;26535;48.788;9.214;2023-07-24T16:03:29;25.60;83.30
40816;DHT22;26535;48.788;9.214;2023-07-24T16:05:54;26.10;81.40
40816;DHT22;26535;48.788;9.214;2023-07-24T16:08:29;25.60;82.30
40816;DHT22;26535;48.788;9.214;2023-07-24T16:10:56;25.70;82.50
40816;DHT22;26535;48.788;9.214;2023-07-24T16:13:22;25.70;82.90
40816;DHT22;26535;48.788;9.214;2023-07-24T16:15:47;25.60;83.00
40816;DHT22;26535;48.788;9.214;2023-07-24T16:18:13;25.30;83.50
40816;DHT22;26535;48.788;9.214;2023-07-24T16:20:39;24.60;86.20
40816;DHT22;26535;48.788;9.214;2023-07-24T16:23:04;24.60;86.30
40816;DHT22;26535;48.788;9.214;2023-07-24T16:25:30;24.50;86.50
40816;DHT22;26535;48.788;9.214;2023-07-24T16:27:56;24.40;86.40
40816;DHT22;26535;48.788;9.214;2023-07-24T16:30:21;24.50;86.80
40816;DHT22;26535;48.788;9.214;2023-07-24T16:32:50;24.50;86.20
40816;DHT22;26535;48.788;9.214;2023-07-24T16:35:16;24.40;87.30
40816;DHT22;26535;48.788;9.214;2023-07-24T16:37:42;24.20;87.20
40816;DHT22;26535;48.788;9.214;2023-07-24T16:40:08;24.20;87.90
40816;DHT22;26535;48.788;9.214;2023-07-24T16:42:34;24.10;88.50
40816;DHT22;26535;48.788;9.214;2023-07-24T16:45:00;24.10;88.70
40816;DHT22;26535;48.788;9.214;2023-07-24T16:47:26;24.10;88.90
40816;DHT22;26535;48.788;9.214;2023-07-24T16:49:52;24.10;89.00
40816;DHT22;26535;48.788;9.214;2023-07-24T16:52:17;24.10;88.90
40816;DHT22;26535;48.788;9.214;2023-07-24T16:54:43;24.00;89.20
40816;DHT22;26535;48.788;9.214;2023-07-24T16:57:09;24.10;89.20
40816;DHT22;26535;48.788;9.214;2023-07-24T16:59:35;23.90;89.40
40816;DHT22;26535;48.788;9.214;2023-07-24T17:02:01;23.90;91.70
40816;DHT22;26535;48.788;9.214;2023-07-24T17:04:26;23.50;94.00
40816;DHT22;26535;48.788;9.214;2023-07-24T17:06:52;22.70;95.10
40816;DHT22;26535;48.788;9.214;2023-07-24T17:09:18;22.00;96.00
40816;DHT22;26535;48.788;9.214;2023-07-24T17:11:44;21.50;97.80
40816;DHT22;26535;48.788;9.214;2023-07-24T17:14:10;21.30;99.00
40816;DHT22;26535;48.788;9.214;2023-07-24T17:16:36;21.10;99.90
40816;DHT22;26535;48.788;9.214;2023-07-24T17:19:01;21.20;99.90
40816;DHT22;26535;48.788;9.214;2023-07-24T17:21:27;21.30;99.90
40816;DHT22;26535;48.788;9.214;2023-07-24T17:23:53;21.50;99.90
40816;DHT22;26535;48.788;9.214;2023-07-24T17:26:18;21.60;99.90
40816;DHT22;26535;48.788;9.214;2023-07-24T17:28:46;22.00;99.90
40816;DHT22;26535;48.788;9.214;2023-07-24T17:31:12;22.70;98.60
40816;DHT22;26535;48.788;9.214;2023-07-24T17:33:37;23.30;97.00
40816;DHT22;26535;48.788;9.214;2023-07-24T17:36:03;23.80;96.30
40816;DHT22;26535;48.788;9.214;2023-07-24T17:38:29;23.70;95.60
40816;DHT22;26535;48.788;9.214;2023-07-24T17:40:56;24.00;94.40
40816;DHT22;26535;48.788;9.214;2023-07-24T17:43:26;24.00;94.40
40816;DHT22;26535;48.788;9.214;2023-07-24T17:45:52;25.10;92.60
40816;DHT22;26535;48.788;9.214;2023-07-24T17:48:18;25.90;90.70
40816;DHT22;26535;48.788;9.214;2023-07-24T17:50:46;26.90;86.70
40816;DHT22;26535;48.788;9.214;2023-07-24T17:53:13;27.90;83.40
40816;DHT22;26535;48.788;9.214;2023-07-24T17:55:38;28.50;80.50
40816;DHT22;26535;48.788;9.214;2023-07-24T17:58:04;28.70;79.20
40816;DHT22;26535;48.788;9.214;2023-07-24T18:00:30;28.60;79.30
40816;DHT22;26535;48.788;9.214;2023-07-24T18:02:55;29.00;78.30
40816;DHT22;26535;48.788;9.214;2023-07-24T18:05:21;29.00;78.00
40816;DHT22;26535;48.788;9.214;2023-07-24T18:07:47;28.60;77.90
40816;DHT22;26535;48.788;9.214;2023-07-24T18:10:12;28.20;78.50
40816;DHT22;26535;48.788;9.214;2023-07-24T18:12:39;28.10;78.50
40816;DHT22;26535;48.788;9.214;2023-07-24T18:15:05;27.40;80.20
40816;DHT22;26535;48.788;9.214;2023-07-24T18:17:31;26.80;80.90
40816;DHT22;26535;48.788;9.214;2023-07-24T18:19:56;25.70;83.90
40816;DHT22;26535;48.788;9.214;2023-07-24T18:22:22;25.00;86.50
40816;DHT22;26535;48.788;9.214;2023-07-24T18:24:48;24.50;89.40
40816;DHT22;26535;48.788;9.214;2023-07-24T18:27:14;24.40;89.80
40816;DHT22;26535;48.788;9.214;2023-07-24T18:29:39;24.10;90.10
40816;DHT22;26535;48.788;9.214;2023-07-24T18:32:06;23.80;90.80
40816;DHT22;26535;48.788;9.214;2023-07-24T18:34:32;23.40;91.20
40816;DHT22;26535;48.788;9.214;2023-07-24T18:36:58;23.10;91.40
40816;DHT22;26535;48.788;9.214;2023-07-24T18:39:23;22.80;92.20
40816;DHT22;26535;48.788;9.214;2023-07-24T18:41:49;22.50;92.60
40816;DHT22;26535;48.788;9.214;2023-07-24T18:44:15;22.40;93.10
40816;DHT22;26535;48.788;9.214;2023-07-24T18:46:41;22.30;93.20
40816;DHT22;26535;48.788;9.214;2023-07-24T18:49:07;22.20;92.60
40816;DHT22;26535;48.788;9.214;2023-07-24T18:51:35;21.90;92.60
40816;DHT22;26535;48.788;9.214;2023-07-24T18:54:01;21.90;93.80
40816;DHT22;26535;48.788;9.214;2023-07-24T18:56:26;21.70;94.00
40816;DHT22;26535;48.788;9.214;2023-07-24T18:58:53;21.50;93.40
40816;DHT22;26535;48.788;9.214;2023-07-24T19:01:19;21.40;94.00
40816;DHT22;26535;48.788;9.214;2023-07-24T19:03:45;21.40;94.20
40816;DHT22;26535;48.788;9.214;2023-07-24T19:06:10;21.20;94.40
40816;DHT22;26535;48.788;9.214;2023-07-24T19:08:36;21.10;94.70
40816;DHT22;26535;48.788;9.214;2023-07-24T19:11:02;21.00;94.60
40816;DHT22;26535;48.788;9.214;2023-07-24T19:13:27;20.90;94.70
40816;DHT22;26535;48.788;9.214;2023-07-24T19:15:58;20.80;94.50
40816;DHT22;26535;48.788;9.214;2023-07-24T19:18:24;20.70;94.20
40816;DHT22;26535;48.788;9.214;2023-07-24T19:20:50;20.70;94.40
40816;DHT22;26535;48.788;9.214;2023-07-24T19:23:15;20.60;94.10
40816;DHT22;26535;48.788;9.214;2023-07-24T19:25:41;20.50;94.10
40816;DHT22;26535;48.788;9.214;2023-07-24T19:28:07;20.40;93.90
40816;DHT22;26535;48.788;9.214;2023-07-24T19:30:35;20.40;94.10
40816;DHT22;26535;48.788;9.214;2023-07-24T19:33:01;20.30;94.10
40816;DHT22;26535;48.788;9.214;2023-07-24T19:35:27;20.30;94.00
40816;DHT22;26535;48.788;9.214;2023-07-24T19:37:52;20.20;94.10
40816;DHT22;26535;48.788;9.214;2023-07-24T19:40:18;20.10;93.50
40816;DHT22;26535;48.788;9.214;2023-07-24T19:42:44;20.10;93.60
40816;DHT22;26535;48.788;9.214;2023-07-24T19:45:10;20.00;93.80
40816;DHT22;26535;48.788;9.214;2023-07-24T19:47:35;20.00;93.70
40816;DHT22;26535;48.788;9.214;2023-07-24T19:50:01;20.00;93.70
40816;DHT22;26535;48.788;9.214;2023-07-24T19:52:28;19.90;93.80
40816;DHT22;26535;48.788;9.214;2023-07-24T19:54:57;19.90;93.90
40816;DHT22;26535;48.788;9.214;2023-07-24T19:57:22;19.80;94.00
40816;DHT22;26535;48.788;9.214;2023-07-24T19:59:48;19.80;94.10
40816;DHT22;26535;48.788;9.214;2023-07-24T20:02:14;19.80;93.90
40816;DHT22;26535;48.788;9.214;2023-07-24T20:04:39;19.70;94.10
40816;DHT22;26535;48.788;9.214;2023-07-24T20:07:08;19.60;94.10
40816;DHT22;26535;48.788;9.214;2023-07-24T20:09:34;19.60;94.20
40816;DHT22;26535;48.788;9.214;2023-07-24T20:12:00;19.50;94.20
40816;DHT22;26535;48.788;9.214;2023-07-24T20:14:26;19.50;94.50
40816;DHT22;26535;48.788;9.214;2023-07-24T20:16:52;19.50;94.10
40816;DHT22;26535;48.788;9.214;2023-07-24T20:19:18;19.50;94.20
40816;DHT22;26535;48.788;9.214;2023-07-24T20:21:46;19.50;94.00
40816;DHT22;26535;48.788;9.214;2023-07-24T20:24:12;19.50;93.90
40816;DHT22;26535;48.788;9.214;2023-07-24T20:26:41;19.60;93.80
40816;DHT22;26535;48.788;9.214;2023-07-24T20:29:09;19.70;93.50
40816;DHT22;26535;48.788;9.214;2023-07-24T20:31:34;19.70;93.30
40816;DHT22;26535;48.788;9.214;2023-07-24T20:34:00;19.70;93.30
40816;DHT22;26535;48.788;9.214;2023-07-24T20:36:26;19.60;93.50
40816;DHT22;26535;48.788;9.214;2023-07-24T20:38:51;19.60;93.50
40816;DHT22;26535;48.788;9.214;2023-07-24T20:41:17;19.50;93.60
40816;DHT22;26535;48.788;9.214;2023-07-24T20:43:44;19.50;93.60
40816;DHT22;26535;48.788;9.214;2023-07-24T20:46:13;19.40;93.70
40816;DHT22;26535;48.788;9.214;2023-07-24T20:48:40;19.40;93.80
40816;DHT22;26535;48.788;9.214;2023-07-24T20:51:27;19.40;93.90
40816;DHT22;26535;48.788;9.214;2023-07-24T20:53:52;19.40;94.10
40816;DHT22;26535;48.788;9.214;2023-07-24T20:56:18;19.30;94.30
40816;DHT22;26535;48.788;9.214;2023-07-24T20:58:47;19.20;94.40
40816;DHT22;26535;48.788;9.214;2023-07-24T21:01:12;19.20;94.50
40816;DHT22;26535;48.788;9.214;2023-07-24T21:03:38;19.20;94.50
40816;DHT22;26535;48.788;9.214;2023-07-24T21:06:04;19.10;94.50
40816;DHT22;26535;48.788;9.214;2023-07-24T21:08:30;19.10;94.90
40816;DHT22;26535;48.788;9.214;2023-07-24T21:10:55;19.10;94.60
40816;DHT22;26535;48.788;9.214;2023-07-24T21:13:21;19.10;94.60
40816;DHT22;26535;48.788;9.214;2023-07-24T21:15:47;19.10;94.60
40816;DHT22;26535;48.788;9.214;2023-07-24T21:18:15;19.10;94.70
40816;DHT22;26535;48.788;9.214;2023-07-24T21:20:41;19.00;94.70
40816;DHT22;26535;48.788;9.214;2023-07-24T21:23:07;18.90;94.80
40816;DHT22;26535;48.788;9.214;2023-07-24T21:25:33;18.90;94.90
40816;DHT22;26535;48.788;9.214;2023-07-24T21:27:58;18.90;95.00
40816;DHT22;26535;48.788;9.214;2023-07-24T21:30:24;18.80;95.00
40816;DHT22;26535;48.788;9.214;2023-07-24T21:32:50;18.90;95.10
40816;DHT22;26535;48.788;9.214;2023-07-24T21:35:18;18.80;95.10
40816;DHT22;26535;48.788;9.214;2023-07-24T21:37:44;18.80;95.20
40816;DHT22;26535;48.788;9.214;2023-07-24T21:40:10;18.70;95.00
40816;DHT22;26535;48.788;9.214;2023-07-24T21:42:35;18.80;94.70
40816;DHT22;26535;48.788;9.214;2023-07-24T21:45:01;18.80;94.40
40816;DHT22;26535;48.788;9.214;2023-07-24T21:47:28;18.90;94.10
40816;DHT22;26535;48.788;9.214;2023-07-24T21:49:53;18.90;94.10
40816;DHT22;26535;48.788;9.214;2023-07-24T21:52:19;18.80;94.30
40816;DHT22;26535;48.788;9.214;2023-07-24T21:54:45;18.90;94.60
40816;DHT22;26535;48.788;9.214;2023-07-24T21:57:11;18.80;94.80
40816;DHT22;26535;48.788;9.214;2023-07-24T21:59:36;18.70;95.10
40816;DHT22;26535;48.788;9.214;2023-07-24T22:02:02;18.60;95.50
40816;DHT22;26535;48.788;9.214;2023-07-24T22:04:28;18.60;95.80
40816;DHT22;26535;48.788;9.214;2023-07-24T22:06:53;18.40;96.10
40816;DHT22;26535;48.788;9.214;2023-07-24T22:09:20;18.50;96.50
40816;DHT22;26535;48.788;9.214;2023-07-24T22:11:46;18.40;96.80
40816;DHT22;26535;48.788;9.214;2023-07-24T22:14:12;18.30;96.80
40816;DHT22;26535;48.788;9.214;2023-07-24T22:16:39;18.20;97.10
40816;DHT22;26535;48.788;9.214;2023-07-24T22:19:08;18.10;97.50
40816;DHT22;26535;48.788;9.214;2023-07-24T22:21:33;18.00;97.90
40816;DHT22;26535;48.788;9.214;2023-07-24T22:23:59;17.90;98.20